Time;durP1;ratioP1;P1;durP2;ratioP2;P2;SDS_P1;SDS_P2;PMS_P1;PMS_P2;Temp;Humidity;BMP_temperature;BMP_pressure;BME280_temperature;BME280_humidity;BME280_pressure;Samples;Min_cycle;Max_cycle;Signal;HPM_P1;HPM_P2
2024/03/14 00:11:34;;;;;;;20.90;8.10;;;;;;;-147.86;100.00;110795.35;102683;1291;600261;-46
2024/03/14 00:14:03;;;;;;;20.10;8.40;;;;;;;-147.86;100.00;110795.35;104868;1265;60797;-47
2024/03/14 00:16:30;;;;;;;22.10;9.30;;;;;;;-147.86;100.00;110795.35;104797;1266;59249;-47
2024/03/14 00:18:59;;;;;;;17.00;9.20;;;;;;;-147.86;100.00;110795.35;104790;1271;72239;-47
2024/03/14 00:21:27;;;;;;;16.60;8.60;;;;;;;-147.86;100.00;110795.35;104874;1266;64048;-46
2024/03/14 00:23:56;;;;;;;17.20;9.00;;;;;;;-147.86;100.00;110692.60;104867;1271;71039;-46
2024/03/14 00:26:24;;;;;;;19.40;9.20;;;;;;;-147.86;100.00;107782.66;104915;1266;272749;-47
2024/03/14 00:28:52;;;;;;;20.10;9.70;;;;;;;-147.86;100.00;100952.44;105057;1268;59270;-49
2024/03/14 00:31:20;;;;;;;16.80;9.50;;;;;;;-147.86;100.00;91609.73;105098;1266;71100;-49
2024/03/14 00:33:48;;;;;;;17.40;9.20;;;;;;;-147.86;100.00;82316.20;104895;1264;63833;-44
2024/03/14 00:36:16;;;;;;;18.50;9.70;;;;;;;-147.86;100.00;75417.98;105083;1266;71452;-47
2024/03/14 00:38:44;;;;;;;21.70;10.50;;;;;;;-147.86;100.00;68914.86;105043;1266;59737;-46
2024/03/14 00:41:15;;;;;;;18.60;9.90;;;;;;;-147.86;100.00;58635.84;105163;1264;59567;-46
2024/03/14 00:43:42;;;;;;;19.60;9.80;;;;;;;-147.86;100.00;48927.93;105009;1266;71966;-47
2024/03/14 00:46:11;;;;;;;16.60;10.70;;;;;;;-147.86;100.00;39977.20;105009;1268;64014;-46
2024/03/14 00:48:39;;;;;;;18.90;10.20;;;;;;;-147.86;100.00;25133.23;105023;1266;72646;-48
2024/03/14 00:51:10;;;;;;;17.70;10.00;;;;;;;-147.86;100.00;21888.12;105049;1268;59722;-48
2024/03/14 01:20:09;;;;;;;19.30;10.30;;;;;;;-147.86;100.00;39854.96;102785;1290;600181;-47
2024/03/14 01:22:38;;;;;;;16.60;9.40;;;;;;;-147.86;100.00;28837.22;105125;1267;59630;-46
2024/03/14 01:25:06;;;;;;;19.50;10.70;;;;;;;-147.86;100.00;30538.29;105261;1269;59516;-48
2024/03/14 01:27:34;;;;;;;16.80;9.20;;;;;;;-147.86;100.00;31193.65;105052;1269;69947;-46
2024/03/14 01:30:02;;;;;;;15.40;9.80;;;;;;;-147.86;100.00;31753.87;105076;1264;63959;-47
2024/03/14 01:32:32;;;;;;;14.10;9.10;;;;;;;-147.86;100.00;32095.94;105082;1267;70442;-49
2024/03/14 01:35:01;;;;;;;14.30;9.70;;;;;;;-147.86;100.00;32385.73;105161;1263;61278;-46
2024/03/14 02:19:32;;;;;;;20.90;9.80;;;;;;;-147.86;100.00;42030.39;102842;1294;600661;-46
2024/03/14 02:22:00;;;;;;;24.80;10.30;;;;;;;-147.86;100.00;30775.34;105097;1269;59609;-46
2024/03/14 02:24:28;;;;;;;27.90;10.90;;;;;;;-147.86;100.00;32102.34;105047;1264;59304;-46
2024/03/14 02:26:56;;;;;;;21.50;9.70;;;;;;;-147.86;100.00;32447.11;105057;1264;71035;-45
2024/03/14 02:29:24;;;;;;;19.00;10.50;;;;;;;-147.86;100.00;32631.46;105121;1264;64226;-49
2024/03/14 02:31:52;;;;;;;19.50;9.40;;;;;;;-147.86;100.00;32825.09;105029;1264;71438;-49
2024/03/14 03:20:34;;;;;;;14.00;7.60;;;;;;;-147.86;100.00;38985.54;102696;1295;600155;-47
2024/03/14 03:23:12;;;;;;;9.80;6.70;;;;;;;-147.86;100.00;27106.34;105071;1267;59835;-47
2024/03/14 03:25:42;;;;;;;12.10;7.40;;;;;;;-147.86;100.00;27273.87;105120;1267;59276;-46
2024/03/14 03:28:10;;;;;;;15.40;8.00;;;;;;;-147.86;100.00;28694.39;105176;1264;70982;-47
2024/03/14 04:20:47;;;;;;;12.50;7.80;;;;;;;-147.86;100.00;39161.61;102668;1292;600126;-46
2024/03/14 04:23:15;;;;;;;14.20;7.80;;;;;;;-147.86;100.00;28149.11;104861;1268;59604;-48
2024/03/14 04:25:43;;;;;;;16.90;7.20;;;;;;;-147.86;100.00;29471.18;108671;1265;58730;-51
2024/03/14 04:28:10;;;;;;;20.50;7.10;;;;;;;-147.86;100.00;29888.27;108665;1265;70937;-49
2024/03/14 04:30:38;;;;;;;12.10;7.10;;;;;;;-147.86;100.00;30186.77;108629;1265;64860;-48
2024/03/14 04:33:07;;;;;;;11.10;6.80;;;;;;;-147.86;100.00;30412.34;109083;1259;72749;-49
2024/03/14 04:35:35;;;;;;;13.60;7.00;;;;;;;-147.86;100.00;30416.33;108909;1256;256345;-51
2024/03/14 04:38:03;;;;;;;15.00;6.70;;;;;;;-147.86;100.00;30717.52;109208;1256;59998;-49
2024/03/14 04:40:31;;;;;;;13.00;6.80;;;;;;;-147.86;100.00;30836.93;109172;1256;72227;-52
2024/03/14 04:42:58;;;;;;;13.00;6.80;;;;;;;-147.86;100.00;30883.78;109174;1256;64353;-48
2024/03/14 04:45:26;;;;;;;13.00;6.70;;;;;;;-147.86;100.00;30962.20;109210;1256;71840;-51
2024/03/14 04:47:54;;;;;;;11.70;6.70;;;;;;;-147.86;100.00;30986.00;109195;1256;60831;-49
2024/03/14 04:50:23;;;;;;;13.90;6.40;;;;;;;-147.86;100.00;30804.95;109142;1256;58797;-47
2024/03/14 04:52:51;;;;;;;13.10;6.30;;;;;;;-147.86;100.00;30836.08;109195;1256;72033;-47
2024/03/14 04:55:20;;;;;;;12.70;6.70;;;;;;;-147.86;100.00;30614.41;109529;1252;65139;-45
2024/03/14 04:57:48;;;;;;;10.70;5.80;;;;;;;-147.86;100.00;30463.36;109537;1252;72744;-46
2024/03/14 05:02:50;;;;;;;11.20;6.20;;;;;;;-147.86;100.00;29874.14;109542;1252;60202;-46
2024/03/14 05:05:21;;;;;;;16.30;6.30;;;;;;;-147.86;100.00;29462.89;109478;1252;73165;-45
2024/03/14 05:07:50;;;;;;;10.50;6.20;;;;;;;-147.86;100.00;29448.74;109617;1252;64505;-48
2024/03/14 05:10:18;;;;;;;13.20;6.30;;;;;;;-147.86;100.00;29421.34;109562;1252;72652;-52
2024/03/14 05:12:48;;;;;;;15.20;6.20;;;;;;;-147.86;100.00;29152.96;109489;1253;59646;-48
2024/03/14 05:15:16;;;;;;;11.90;5.70;;;;;;;-147.86;100.00;29279.30;109553;1252;58724;-48
2024/03/14 05:18:02;;;;;;;20.90;6.70;;;;;;;-147.86;100.00;37403.41;102655;1292;599548;-53
2024/03/14 05:20:31;;;;;;;11.10;6.00;;;;;;;-147.86;100.00;28390.80;104811;1271;60812;-47
2024/03/14 05:22:59;;;;;;;10.40;6.40;;;;;;;-147.86;100.00;28650.72;104831;1271;59308;-47
2024/03/14 05:25:27;;;;;;;15.30;7.10;;;;;;;-147.86;100.00;28341.32;104830;1272;70790;-47
2024/03/14 05:27:55;;;;;;;10.70;6.00;;;;;;;-147.86;100.00;27643.52;104840;1272;65166;-48
2024/03/14 05:30:23;;;;;;;15.20;6.20;;;;;;;-147.86;100.00;27145.48;104854;1271;71412;-44
2024/03/14 05:32:52;;;;;;;14.80;6.40;;;;;;;-147.86;100.00;26461.58;104902;1266;271221;-46
2024/03/14 05:35:19;;;;;;;16.30;6.90;;;;;;;-147.86;100.00;26070.08;105095;1268;59468;-46
2024/03/14 05:37:47;;;;;;;16.50;7.60;;;;;;;-147.86;100.00;25752.36;105097;1269;72192;-49
2024/03/14 05:40:15;;;;;;;19.90;6.60;;;;;;;-147.86;100.00;25574.60;105092;1268;65192;-46
2024/03/14 05:42:42;;;;;;;10.50;6.20;;;;;;;-147.86;100.00;25526.27;104950;1266;71457;-49
2024/03/14 06:20:50;;;;;;;26.30;6.80;;;;;;;-147.86;100.00;28161.05;102731;1290;599750;-48
2024/03/14 06:23:18;;;;;;;10.60;6.30;;;;;;;-147.86;100.00;23148.32;104866;1266;62121;-47
2024/03/14 06:25:46;;;;;;;13.60;6.10;;;;;;;-147.86;100.00;24175.82;104862;1269;59316;-47
2024/03/14 06:28:13;;;;;;;14.00;7.40;;;;;;;-147.86;100.00;24170.35;105061;1266;74622;-48
2024/03/14 06:30:41;;;;;;;15.30;6.70;;;;;;;-147.86;100.00;24004.33;105079;1266;64585;-48
2024/03/14 06:33:10;;;;;;;14.60;6.70;;;;;;;-147.86;100.00;23479.88;104820;1266;73955;-48
2024/03/14 06:35:39;;;;;;;13.40;6.70;;;;;;;-147.86;100.00;22872.58;104949;1264;260418;-49
2024/03/14 06:38:07;;;;;;;15.70;6.80;;;;;;;-147.86;100.00;22509.14;105197;1267;60014;-51
2024/03/14 06:40:34;;;;;;;14.80;6.80;;;;;;;-147.86;100.00;22315.15;105159;1263;74474;-50
2024/03/14 06:43:06;;;;;;;20.10;6.20;;;;;;;-147.86;100.00;22056.54;105205;1266;67527;-47
2024/03/14 06:45:34;;;;;;;12.80;6.40;;;;;;;-147.86;100.00;21381.48;105185;1263;75309;-48
2024/03/14 06:48:03;;;;;;;11.20;6.40;;;;;;;-147.86;100.00;21144.45;105185;1266;63125;-49
2024/03/14 06:50:31;;;;;;;13.10;6.40;;;;;;;-147.86;100.00;20107.41;105172;1263;62284;-53
2024/03/14 06:52:59;;;;;;;10.60;5.80;;;;;;;-147.86;100.00;19894.01;105215;1266;75717;-48
2024/03/14 06:55:27;;;;;;;10.40;5.80;;;;;;;-147.86;100.00;17117.94;105232;1266;66724;-48
2024/03/14 06:57:55;;;;;;;10.80;7.00;;;;;;;-147.86;100.00;14871.90;105183;1266;74858;-50
2024/03/14 07:00:24;;;;;;;13.20;6.50;;;;;;;-147.86;100.00;13211.49;105212;1269;61942;-48
2024/03/14 07:02:52;;;;;;;14.00;6.00;;;;;;;-147.86;100.00;11210.01;105160;1263;62156;-49
2024/03/14 07:05:22;;;;;;;12.90;6.90;;;;;;;-147.86;100.00;9136.58;105174;1263;75900;-49
2024/03/14 07:07:50;;;;;;;16.50;6.40;;;;;;;-147.86;100.00;6874.55;105189;1269;67544;-48
2024/03/14 07:10:19;;;;;;;12.60;6.90;;;;;;;-147.86;100.00;5227.66;105184;1263;73608;-50
2024/03/14 07:12:47;;;;;;;14.10;6.60;;;;;;;-147.86;100.00;3721.44;105203;1266;60681;-50
2024/03/14 07:15:15;;;;;;;14.10;6.40;;;;;;;-147.86;100.00;2606.36;105603;1256;62272;-47
2024/03/14 07:17:43;;;;;;;11.90;6.90;;;;;;;-147.86;100.00;1453.29;105604;1257;74229;-50
2024/03/14 07:20:17;;;;;;;17.20;7.60;;;;;;;-147.86;100.00;506.20;105583;1256;66721;-51
2024/03/14 07:22:48;;;;;;;17.50;7.40;;;;;;;-147.86;100.00;-531.21;105574;1260;75060;-48
2024/03/14 07:25:18;;;;;;;13.90;7.00;;;;;;;-147.86;100.00;-183.44;105610;1260;61928;-49
2024/03/14 07:27:47;;;;;;;14.20;7.40;;;;;;;-147.86;100.00;535.72;105650;1258;61251;-49
2024/03/14 07:30:14;;;;;;;14.30;7.30;;;;;;;-147.86;100.00;1128.33;105590;1258;75302;-47
2024/03/14 07:32:43;;;;;;;13.20;6.80;;;;;;;-147.86;100.00;1514.55;105566;1263;66721;-48
2024/03/14 07:35:11;;;;;;;14.10;7.20;;;;;;;-147.86;100.00;1495.16;105577;1258;75024;-49
2024/03/14 07:37:44;;;;;;;21.60;7.70;;;;;;;-147.86;100.00;1711.44;105508;1261;63389;-50
2024/03/14 07:40:12;;;;;;;17.20;7.50;;;;;;;-147.86;100.00;2696.79;105621;1258;61160;-49
2024/03/14 07:42:40;;;;;;;18.40;6.80;;;;;;;-147.86;100.00;2540.11;105281;1258;75357;-50
2024/03/14 07:45:13;;;;;;;14.20;8.20;;;;;;;-147.86;100.00;1735.35;105533;1261;65159;-46
2024/03/14 07:47:41;;;;;;;18.70;7.80;;;;;;;-147.86;100.00;867.24;105549;1258;74896;-48
2024/03/14 07:50:10;;;;;;;15.40;5.80;;;;;;;-147.86;100.00;773.89;105559;1262;63142;-49
2024/03/14 07:52:39;;;;;;;16.70;7.40;;;;;;;-147.86;100.00;959.81;105546;1257;62059;-47
2024/03/14 07:55:09;;;;;;;15.40;7.50;;;;;;;-147.86;100.00;891.63;105517;1257;75233;-47
2024/03/14 07:57:37;;;;;;;19.40;7.10;;;;;;;-147.86;100.00;933.13;105569;1260;66742;-47
2024/03/14 08:00:08;;;;;;;14.90;6.70;;;;;;;-147.86;100.00;1838.07;105579;1257;74932;-50
2024/03/14 08:02:39;;;;;;;22.30;6.50;;;;;;;-147.86;100.00;923.40;105615;1260;59664;-49
2024/03/14 08:05:07;;;;;;;12.20;7.20;;;;;;;-147.86;100.00;355.97;105610;1258;62231;-49
2024/03/14 08:07:38;;;;;;;13.00;6.50;;;;;;;-147.86;100.00;182.45;105615;1258;75307;-49
2024/03/14 08:10:08;;;;;;;22.00;7.50;;;;;;;-147.86;100.00;-1746.52;105563;1257;65788;-48
2024/03/14 08:12:36;;;;;;;22.80;9.20;;;;;;;-147.86;100.00;-3378.49;105594;1260;73976;-50
2024/03/14 08:15:16;;;;;;;23.60;7.80;;;;;;;-147.86;100.00;-3680.63;105610;1260;61516;-49
2024/03/14 08:17:45;;;;;;;16.50;7.10;;;;;;;-147.86;100.00;-5018.98;105631;1257;61420;-50
2024/03/14 08:20:15;;;;;;;15.90;7.40;;;;;;;-147.86;100.00;-5067.77;105707;1259;75338;-49
2024/03/14 08:22:46;;;;;;;38.30;7.70;;;;;;;-147.86;100.00;-5683.01;105760;1258;67447;-50
2024/03/14 08:25:17;;;;;;;20.90;8.00;;;;;;;-147.86;100.00;-5564.31;105635;1254;74977;-49
2024/03/14 08:27:47;;;;;;;20.60;7.30;;;;;;;-147.86;100.00;-5952.94;105757;1257;60340;-49
2024/03/14 08:30:15;;;;;;;18.60;7.90;;;;;;;-147.86;100.00;-7086.88;105655;1254;61118;-48
2024/03/14 08:32:43;;;;;;;19.30;8.10;;;;;;;-147.86;100.00;-10244.42;105763;1254;75270;-49
2024/03/14 08:35:14;;;;;;;19.90;7.10;;;;;;;-147.86;100.00;-13031.60;105773;1257;65466;-51
2024/03/14 08:37:43;;;;;;;20.50;7.90;;;;;;;-147.86;100.00;-15126.71;105766;1254;74955;-49
2024/03/14 08:40:11;;;;;;;17.50;7.60;;;;;;;-147.86;100.00;-17041.02;105759;1257;61608;-49
2024/03/14 08:42:41;;;;;;;25.30;9.10;;;;;;;-147.86;100.00;-17587.19;105703;1253;62422;-48
2024/03/14 08:45:15;;;;;;;33.80;14.30;;;;;;;-147.86;100.00;-17609.17;105752;1256;73224;-47
2024/03/14 08:47:44;;;;;;;16.80;7.60;;;;;;;-147.86;100.00;-17609.17;105816;1256;66754;-49
2024/03/14 08:50:14;;;;;;;26.30;14.10;;;;;;;-147.86;100.00;-17609.17;105704;1254;72293;-48
2024/03/14 08:52:44;;;;;;;23.90;7.80;;;;;;;-147.86;100.00;-17420.94;105764;1256;63177;-49
2024/03/14 08:55:29;;;;;;;17.10;7.00;;;;;;;-147.86;100.00;-16555.92;105799;1253;62049;-48
2024/03/14 08:57:59;;;;;;;18.40;7.60;;;;;;;-147.86;100.00;-17415.36;105720;1253;75281;-47
2024/03/14 09:00:28;;;;;;;24.90;9.60;;;;;;;-147.86;100.00;-17609.17;105791;1253;66847;-48
2024/03/14 09:02:55;;;;;;;37.90;15.80;;;;;;;-147.86;100.00;-17609.17;105661;1253;72557;-49
2024/03/14 09:05:25;;;;;;;16.10;9.00;;;;;;;-147.86;100.00;-17609.17;105639;1253;63127;-50
2024/03/14 09:07:54;;;;;;;34.40;10.20;;;;;;;-147.86;100.00;-17609.17;105742;1253;62294;-45
2024/03/14 09:10:25;;;;;;;18.70;8.30;;;;;;;-147.86;100.00;-17609.17;105811;1253;72086;-49
2024/03/14 09:12:54;;;;;;;27.40;8.50;;;;;;;-147.86;100.00;-17609.17;105784;1258;65840;-49
2024/03/14 09:15:24;;;;;;;183.40;65.70;;;;;;;-147.86;100.00;-17609.17;105799;1253;75390;-51
2024/03/14 09:17:52;;;;;;;42.40;13.30;;;;;;;-147.86;100.00;-17609.17;105716;1257;63475;-49
2024/03/14 09:20:20;;;;;;;36.00;12.30;;;;;;;-147.86;100.00;-17609.17;105699;1253;59880;-48
2024/03/14 09:22:58;;;;;;;38.30;12.80;;;;;;;-147.86;100.00;-17609.17;105763;1253;75323;-51
2024/03/14 09:25:26;;;;;;;17.30;8.00;;;;;;;-147.86;100.00;-17609.17;105721;1255;65591;-46
2024/03/14 09:27:55;;;;;;;42.20;15.70;;;;;;;-147.86;100.00;-17609.17;105735;1259;74890;-48
2024/03/14 09:30:23;;;;;;;26.40;10.50;;;;;;;-147.86;100.00;-17609.17;105781;1256;63273;-50
2024/03/14 09:32:53;;;;;;;46.80;15.80;;;;;;;-147.86;100.00;-17609.17;105643;1253;62507;-48
2024/03/14 09:35:27;;;;;;;16.50;8.00;;;;;;;-147.86;100.00;-17609.17;105785;1257;74187;-48
2024/03/14 09:37:56;;;;;;;17.30;8.40;;;;;;;-147.86;100.00;-17609.17;105690;1259;66706;-46
2024/03/14 09:40:23;;;;;;;19.30;7.90;;;;;;;-147.86;100.00;-17609.17;105688;1253;74875;-49
2024/03/14 09:42:58;;;;;;;24.40;7.50;;;;;;;-147.86;100.00;-17609.17;105713;1256;61855;-48
2024/03/14 09:45:26;;;;;;;16.70;8.50;;;;;;;-147.86;100.00;-17609.17;105674;1253;62176;-48
2024/03/14 09:47:57;;;;;;;28.20;9.10;;;;;;;-147.86;100.00;-17609.17;105677;1253;73953;-49
2024/03/14 09:50:26;;;;;;;21.20;8.20;;;;;;;-147.86;100.00;-17609.17;105733;1253;67246;-50
2024/03/14 09:52:55;;;;;;;21.20;8.00;;;;;;;-147.86;100.00;-17609.17;105712;1253;75026;-49
2024/03/14 09:55:24;;;;;;;22.70;7.30;;;;;;;-147.86;100.00;-17609.17;105682;1258;63179;-49
2024/03/14 09:57:55;;;;;;;22.80;7.10;;;;;;;-147.86;100.00;-17609.17;105672;1253;61966;-47
2024/03/14 10:00:25;;;;;;;22.00;8.90;;;;;;;-147.86;100.00;-17609.17;105814;1254;75349;-49
2024/03/14 10:02:55;;;;;;;27.60;8.90;;;;;;;-147.86;100.00;-17609.17;105826;1256;65561;-48
2024/03/14 10:05:24;;;;;;;26.50;8.40;;;;;;;-147.86;100.00;-17609.17;105787;1256;74976;-46
2024/03/14 10:07:55;;;;;;;14.30;7.10;;;;;;;-147.86;100.00;-17609.17;105783;1256;63037;-47
2024/03/14 10:10:23;;;;;;;18.20;7.00;;;;;;;-147.86;100.00;-17609.17;105776;1253;62227;-46
2024/03/14 10:12:52;;;;;;;20.60;7.50;;;;;;;-147.86;100.00;-17609.17;105657;1259;75272;-47
2024/03/14 10:15:21;;;;;;;29.40;7.70;;;;;;;-147.86;100.00;-17609.17;105832;1256;66967;-47
2024/03/14 10:17:53;;;;;;;21.80;7.30;;;;;;;-147.86;100.00;-17609.17;105788;1253;74917;-48
2024/03/14 10:20:21;;;;;;;15.50;7.20;;;;;;;-147.86;100.00;-17609.17;105753;1258;61936;-47
2024/03/14 10:22:51;;;;;;;17.00;7.10;;;;;;;-147.86;100.00;-17609.17;105708;1254;62320;-48
2024/03/14 10:25:28;;;;;;;27.70;7.70;;;;;;;-147.86;100.00;-17609.17;105785;1255;73342;-47
2024/03/14 10:27:57;;;;;;;19.60;7.80;;;;;;;-147.86;100.00;-17609.17;105683;1253;67033;-47
2024/03/14 10:30:44;;;;;;;18.60;7.90;;;;;;;-147.86;100.00;-17609.17;105671;1253;75079;-49
2024/03/14 10:33:12;;;;;;;22.10;8.10;;;;;;;-147.86;100.00;-17609.17;105687;1261;60556;-46
2024/03/14 10:35:42;;;;;;;16.10;7.60;;;;;;;-147.86;100.00;-17609.17;105757;1253;62291;-46
2024/03/14 10:38:14;;;;;;;33.70;8.20;;;;;;;-147.86;100.00;-17609.17;105814;1256;76145;-46
2024/03/14 10:40:41;;;;;;;18.10;7.20;;;;;;;-147.86;100.00;-17609.17;105696;1253;66522;-47
2024/03/14 10:43:10;;;;;;;22.40;7.30;;;;;;;-147.86;100.00;-17609.17;105764;1253;73770;-48
2024/03/14 10:45:39;;;;;;;21.50;8.10;;;;;;;-147.86;100.00;-17609.17;105708;1253;62363;-47
2024/03/14 10:48:09;;;;;;;17.10;7.60;;;;;;;-147.86;100.00;-17609.17;105717;1253;62424;-48
2024/03/14 10:50:37;;;;;;;18.10;7.50;;;;;;;-147.86;100.00;-17609.17;105679;1259;75219;-47
2024/03/14 10:53:05;;;;;;;31.80;10.70;;;;;;;-147.86;100.00;-17609.17;105751;1256;67461;-48
2024/03/14 10:55:34;;;;;;;27.80;11.30;;;;;;;-147.86;100.00;-17609.17;105710;1253;74901;-47
2024/03/14 11:20:25;;;;;;;28.60;7.70;;;;;;;-147.86;100.00;-17609.17;102955;1290;600748;-47
2024/03/14 11:22:58;;;;;;;78.60;43.10;;;;;;;-147.86;100.00;-17609.17;105175;1264;61234;-47
2024/03/14 11:25:25;;;;;;;33.60;12.70;;;;;;;-147.86;100.00;-17609.17;105155;1269;59271;-46
2024/03/14 11:27:56;;;;;;;23.30;9.00;;;;;;;-147.86;100.00;-17609.17;104966;1264;74577;-46
2024/03/14 11:30:25;;;;;;;44.30;18.60;;;;;;;-147.86;100.00;-17609.17;105184;1270;65328;-46
2024/03/14 11:32:55;;;;;;;34.10;15.50;;;;;;;-147.86;100.00;-17609.17;104714;1272;254706;-46
2024/03/14 11:35:45;;;;;;;25.50;10.40;;;;;;;-147.86;100.00;-17609.17;105282;1266;62260;-47
2024/03/14 11:38:15;;;;;;;38.70;15.40;;;;;;;-147.86;100.00;-17609.17;105235;1266;61124;-47
2024/03/14 11:40:45;;;;;;;22.60;8.10;;;;;;;-147.86;100.00;-17609.17;105211;1266;73415;-45
2024/03/14 11:43:20;;;;;;;22.30;8.60;;;;;;;-147.86;100.00;-17609.17;105261;1261;66361;-48
2024/03/14 11:45:59;;;;;;;34.90;14.60;;;;;;;-147.86;100.00;-17609.17;105282;1264;72588;-45
2024/03/14 11:48:28;;;;;;;19.60;9.30;;;;;;;-147.86;100.00;-17609.17;105248;1264;59656;-47
2024/03/14 11:51:01;;;;;;;25.60;9.60;;;;;;;-147.86;100.00;-17609.17;105222;1261;62261;-47
2024/03/14 11:53:29;;;;;;;24.10;10.70;;;;;;;-147.86;100.00;-17609.17;105280;1266;75904;-46
2024/03/14 11:55:58;;;;;;;24.40;7.40;;;;;;;-147.86;100.00;-17609.17;105260;1261;66396;-48
2024/03/14 11:58:40;;;;;;;25.60;8.90;;;;;;;-147.86;100.00;-17609.17;105171;1261;73922;-48
2024/03/14 12:01:15;;;;;;;22.70;8.00;;;;;;;-147.86;100.00;-17609.17;105265;1266;60102;-49
2024/03/14 12:03:57;;;;;;;30.30;10.20;;;;;;;-147.86;100.00;-17609.17;105260;1267;59776;-49
2024/03/14 12:06:26;;;;;;;33.70;9.40;;;;;;;-147.86;100.00;-17609.17;105249;1267;72918;-47
2024/03/14 12:08:54;;;;;;;27.10;9.30;;;;;;;-147.86;100.00;-17609.17;105269;1261;63413;-49
2024/03/14 12:11:22;;;;;;;23.80;8.70;;;;;;;-147.86;100.00;-17609.17;105211;1261;75233;-47
2024/03/14 12:13:53;;;;;;;31.90;9.90;;;;;;;-147.86;100.00;-17609.17;105243;1266;61447;-47
2024/03/14 12:16:22;;;;;;;29.30;8.60;;;;;;;-147.86;100.00;-17609.17;105226;1266;61105;-46
2024/03/14 12:18:52;;;;;;;30.00;9.50;;;;;;;-147.86;100.00;-17609.17;105248;1262;75294;-48
2024/03/14 12:21:20;;;;;;;30.10;8.10;;;;;;;-147.86;100.00;-17609.17;105244;1268;67476;-46
2024/03/14 12:23:51;;;;;;;41.80;17.60;;;;;;;-147.86;100.00;-17609.17;105213;1268;75117;-49
2024/03/14 12:26:21;;;;;;;21.80;8.40;;;;;;;-147.86;100.00;-17609.17;105158;1269;61743;-48
2024/03/14 12:29:48;;;;;;;28.20;9.00;;;;;;;-147.86;100.00;-17609.17;102779;1293;600879;-47
2024/03/14 12:32:16;;;;;;;21.40;7.60;;;;;;;-147.86;100.00;-17609.17;105114;1277;62277;-47
2024/03/14 12:34:44;;;;;;;18.90;9.00;;;;;;;-147.86;100.00;-17609.17;104836;1269;61268;-46
2024/03/14 12:37:13;;;;;;;29.50;9.70;;;;;;;-147.86;100.00;-17609.17;104799;1266;72519;-47
2024/03/14 12:39:50;;;;;;;26.70;8.30;;;;;;;-147.86;100.00;-17609.17;104889;1264;64277;-46
2024/03/14 12:42:18;;;;;;;24.60;8.60;;;;;;;-147.86;100.00;-17609.17;104627;1280;267167;-47
2024/03/14 12:44:46;;;;;;;18.20;8.10;;;;;;;-147.86;100.00;-17609.17;105156;1269;62991;-47
2024/03/14 12:47:14;;;;;;;18.90;8.70;;;;;;;-147.86;100.00;-17609.17;105270;1268;61015;-46
2024/03/14 12:49:42;;;;;;;28.60;9.10;;;;;;;-147.86;100.00;-17609.17;105177;1268;74453;-47
2024/03/14 12:52:12;;;;;;;23.60;8.70;;;;;;;-147.86;100.00;-17609.17;105152;1267;67791;-47
2024/03/14 12:54:43;;;;;;;39.70;9.90;;;;;;;-147.86;100.00;-17609.17;105209;1267;74680;-46
2024/03/14 12:57:13;;;;;;;39.30;10.20;;;;;;;-147.86;100.00;-17609.17;105184;1267;62406;-44
2024/03/14 12:59:47;;;;;;;26.30;10.30;;;;;;;-147.86;100.00;-17609.17;105229;1268;62763;-46
2024/03/14 13:02:21;;;;;;;40.40;11.40;;;;;;;-147.86;100.00;-17609.17;105223;1264;75397;-44
2024/03/14 13:04:50;;;;;;;35.70;9.00;;;;;;;-147.86;100.00;-17609.17;105172;1269;67601;-46
2024/03/14 13:07:21;;;;;;;32.30;8.30;;;;;;;-147.86;100.00;-17609.17;105254;1264;74915;-46
2024/03/14 13:10:09;;;;;;;41.90;8.20;;;;;;;-147.86;100.00;-17609.17;105242;1276;60177;-47
2024/03/14 13:12:40;;;;;;;35.80;9.40;;;;;;;-147.86;100.00;-17609.17;105165;1267;62286;-45
2024/03/14 13:15:11;;;;;;;33.60;9.60;;;;;;;-147.86;100.00;-17609.17;105252;1265;75395;-48
2024/03/14 13:17:46;;;;;;;24.30;13.40;;;;;;;-147.86;100.00;-17609.17;105221;1265;67596;-46
2024/03/14 13:20:14;;;;;;;22.50;8.80;;;;;;;-147.86;100.00;-17609.17;105205;1266;74889;-49
2024/03/14 13:22:43;;;;;;;40.30;9.70;;;;;;;-147.86;100.00;-17609.17;105178;1265;62453;-49
2024/03/14 13:25:11;;;;;;;54.20;9.30;;;;;;;-147.86;100.00;-17609.17;105228;1267;61631;-47
2024/03/14 13:27:40;;;;;;;39.20;8.70;;;;;;;-147.86;100.00;-17609.17;105214;1266;75316;-46
2024/03/14 13:30:12;;;;;;;35.00;14.80;;;;;;;-147.86;100.00;-17609.17;105244;1265;67297;-47
2024/03/14 13:32:40;;;;;;;25.60;9.60;;;;;;;-147.86;100.00;-17609.17;105243;1261;74886;-49
2024/03/14 13:35:10;;;;;;;29.90;10.10;;;;;;;-147.86;100.00;-17609.17;105207;1274;60547;-47
2024/03/14 13:37:38;;;;;;;32.30;8.60;;;;;;;-147.86;100.00;-17609.17;105199;1261;62313;-48
2024/03/14 13:40:11;;;;;;;28.60;10.10;;;;;;;-147.86;100.00;-17609.17;105241;1261;75417;-48
2024/03/14 13:42:41;;;;;;;28.80;8.70;;;;;;;-147.86;100.00;-17609.17;105268;1266;66886;-49
2024/03/14 13:45:16;;;;;;;19.20;8.10;;;;;;;-147.86;100.00;-17609.17;105249;1266;73917;-50
2024/03/14 13:47:46;;;;;;;28.70;8.90;;;;;;;-147.86;100.00;-17609.17;105265;1273;62316;-46
2024/03/14 13:50:15;;;;;;;18.00;8.90;;;;;;;-147.86;100.00;-17609.17;105255;1263;62284;-48
2024/03/14 13:52:43;;;;;;;25.80;8.90;;;;;;;-147.86;100.00;-17609.17;105236;1265;73240;-48
2024/03/14 13:55:33;;;;;;;24.20;10.00;;;;;;;-147.86;100.00;-17609.17;105233;1266;66618;-49
2024/03/14 13:58:02;;;;;;;30.80;9.70;;;;;;;-147.86;100.00;-17609.17;105247;1265;74914;-46
2024/03/14 14:00:45;;;;;;;28.80;9.00;;;;;;;-147.86;100.00;-17609.17;105254;1267;61627;-46
2024/03/14 14:03:19;;;;;;;35.70;8.60;;;;;;;-147.86;100.00;-17609.17;105726;1257;62436;-48
2024/03/14 14:05:57;;;;;;;18.70;8.10;;;;;;;-147.86;100.00;-17609.17;105714;1252;72345;-49
2024/03/14 14:08:27;;;;;;;29.40;8.50;;;;;;;-147.86;100.00;-17609.17;105726;1258;67353;-48
2024/03/14 14:10:55;;;;;;;21.40;9.00;;;;;;;-147.86;100.00;-17609.17;105775;1257;72979;-47
2024/03/14 14:13:23;;;;;;;33.30;11.00;;;;;;;-147.86;100.00;-17609.17;105849;1258;61862;-46
2024/03/14 14:15:52;;;;;;;32.30;9.70;;;;;;;-147.86;100.00;-17609.17;105707;1255;60269;-46
2024/03/14 14:18:20;;;;;;;31.10;10.40;;;;;;;-147.86;100.00;-17609.17;105876;1257;75671;-48
2024/03/14 14:20:48;;;;;;;23.00;9.70;;;;;;;-147.86;100.00;-17609.17;105703;1253;66849;-45
2024/03/14 14:23:15;;;;;;;19.20;10.20;;;;;;;-147.86;100.00;-17609.17;105710;1254;74874;-46
2024/03/14 14:25:47;;;;;;;25.20;9.80;;;;;;;-147.86;100.00;-17609.17;105887;1267;63129;-46
2024/03/14 14:28:16;;;;;;;23.50;10.60;;;;;;;-147.86;100.00;-17609.17;105690;1257;59653;-46
2024/03/14 14:30:44;;;;;;;30.40;10.70;;;;;;;-147.86;100.00;-17609.17;105703;1258;74878;-47
2024/03/14 14:33:12;;;;;;;24.00;10.30;;;;;;;-147.86;100.00;-17609.17;105753;1260;67493;-46
2024/03/14 14:35:41;;;;;;;22.40;10.70;;;;;;;-147.86;100.00;-17609.17;105702;1254;75144;-45
2024/03/14 14:38:09;;;;;;;32.60;12.00;;;;;;;-147.86;100.00;-17609.17;105716;1257;63248;-46
2024/03/14 14:40:36;;;;;;;17.70;10.80;;;;;;;-147.86;100.00;-17609.17;105722;1257;62350;-46
2024/03/14 14:43:05;;;;;;;23.10;11.60;;;;;;;-147.86;100.00;-17609.17;105670;1254;73188;-45
2024/03/14 14:45:33;;;;;;;22.20;12.20;;;;;;;-147.86;100.00;-17609.17;105727;1254;67582;-46
2024/03/14 14:48:05;;;;;;;27.50;12.10;;;;;;;-147.86;100.00;-17609.17;105700;1258;74917;-44
2024/03/14 14:50:33;;;;;;;24.10;11.60;;;;;;;-147.86;100.00;-17609.17;105851;1258;62866;-46
2024/03/14 14:53:01;;;;;;;22.80;10.70;;;;;;;-147.86;100.00;32320.53;105782;1254;62221;-45
2024/03/14 14:55:29;;;;;;;22.50;10.60;;;;;;;-147.86;100.00;92130.77;105730;1257;75073;-49
2024/03/14 14:57:57;;;;;;;23.70;11.70;;;;;;;-147.86;100.00;93707.48;105705;1257;67521;-48